sensor_id;sensor_type;location;lat;lon;timestamp;pressure;altitude;pressure_sealevel;temperature;humidity
43838;BME280;65998;46.256;7.534;2023-07-16T00:00:50;87163.34;;;20.64;99.68
43838;BME280;65998;46.256;7.534;2023-07-16T00:03:36;87169.78;;;20.61;100.00
43838;BME280;65998;46.256;7.534;2023-07-16T00:06:02;87163.63;;;20.58;100.00
43838;BME280;65998;46.256;7.534;2023-07-16T00:08:28;87159.56;;;20.55;100.00
43838;BME280;65998;46.256;7.534;2023-07-16T00:10:54;87156.34;;;20.49;100.00
43838;BME280;65998;46.256;7.534;2023-07-16T00:13:20;87163.53;;;20.44;100.00
43838;BME280;65998;46.256;7.534;2023-07-16T00:15:45;87172.81;;;20.38;100.00
43838;BME280;65998;46.256;7.534;2023-07-16T00:18:11;87172.06;;;20.23;100.00
43838;BME280;65998;46.256;7.534;2023-07-16T00:20:37;87181.03;;;20.08;100.00
43838;BME280;65998;46.256;7.534;2023-07-16T00:23:03;87171.03;;;19.97;100.00
43838;BME280;65998;46.256;7.534;2023-07-16T00:25:29;87183.19;;;19.89;100.00
43838;BME280;65998;46.256;7.534;2023-07-16T00:27:54;87174.75;;;19.91;100.00
43838;BME280;65998;46.256;7.534;2023-07-16T00:30:20;87179.84;;;20.03;100.00
43838;BME280;65998;46.256;7.534;2023-07-16T00:32:46;87179.00;;;20.07;100.00
43838;BME280;65998;46.256;7.534;2023-07-16T00:35:12;87187.53;;;20.03;100.00
43838;BME280;65998;46.256;7.534;2023-07-16T00:37:37;87180.09;;;19.97;100.00
43838;BME280;65998;46.256;7.534;2023-07-16T00:40:04;87186.09;;;20.04;100.00
43838;BME280;65998;46.256;7.534;2023-07-16T00:42:30;87180.59;;;20.02;100.00
43838;BME280;65998;46.256;7.534;2023-07-16T00:44:56;87175.69;;;20.02;100.00
43838;BME280;65998;46.256;7.534;2023-07-16T00:47:21;87178.06;;;19.96;100.00
43838;BME280;65998;46.256;7.534;2023-07-16T00:49:48;87177.47;;;19.93;100.00
43838;BME280;65998;46.256;7.534;2023-07-16T00:52:16;87173.56;;;19.86;100.00
43838;BME280;65998;46.256;7.534;2023-07-16T00:54:43;87175.75;;;19.84;100.00
43838;BME280;65998;46.256;7.534;2023-07-16T00:57:09;87179.22;;;19.84;100.00
43838;BME280;65998;46.256;7.534;2023-07-16T00:59:35;87175.31;;;19.77;100.00
43838;BME280;65998;46.256;7.534;2023-07-16T01:02:01;87183.22;;;19.70;100.00
43838;BME280;65998;46.256;7.534;2023-07-16T01:04:27;87176.69;;;19.59;100.00
43838;BME280;65998;46.256;7.534;2023-07-16T01:06:56;87175.03;;;19.66;100.00
43838;BME280;65998;46.256;7.534;2023-07-16T01:09:24;87177.66;;;19.52;100.00
43838;BME280;65998;46.256;7.534;2023-07-16T01:11:51;87167.75;;;19.38;100.00
43838;BME280;65998;46.256;7.534;2023-07-16T01:14:19;87174.97;;;19.31;100.00
43838;BME280;65998;46.256;7.534;2023-07-16T01:16:45;87177.94;;;19.27;100.00
43838;BME280;65998;46.256;7.534;2023-07-16T01:19:11;87176.81;;;19.20;100.00
43838;BME280;65998;46.256;7.534;2023-07-16T01:21:50;87178.69;;;19.25;100.00
43838;BME280;65998;46.256;7.534;2023-07-16T01:32:01;87173.72;;;19.09;100.00
43838;BME280;65998;46.256;7.534;2023-07-16T01:34:31;87177.25;;;19.07;100.00
43838;BME280;65998;46.256;7.534;2023-07-16T01:36:57;87179.97;;;19.09;100.00
43838;BME280;65998;46.256;7.534;2023-07-16T01:39:23;87179.28;;;19.09;100.00
43838;BME280;65998;46.256;7.534;2023-07-16T01:41:49;87181.84;;;19.15;100.00
43838;BME280;65998;46.256;7.534;2023-07-16T01:44:15;87183.97;;;19.14;100.00
43838;BME280;65998;46.256;7.534;2023-07-16T01:46:41;87175.06;;;19.10;100.00
43838;BME280;65998;46.256;7.534;2023-07-16T01:49:07;87173.78;;;19.07;100.00
43838;BME280;65998;46.256;7.534;2023-07-16T01:51:32;87167.78;;;19.00;100.00
43838;BME280;65998;46.256;7.534;2023-07-16T01:53:58;87181.31;;;19.10;100.00
43838;BME280;65998;46.256;7.534;2023-07-16T01:56:24;87178.91;;;19.19;100.00
43838;BME280;65998;46.256;7.534;2023-07-16T01:58:50;87179.13;;;19.13;100.00
43838;BME280;65998;46.256;7.534;2023-07-16T02:01:16;87177.09;;;19.11;100.00
43838;BME280;65998;46.256;7.534;2023-07-16T02:03:42;87181.69;;;19.00;100.00
43838;BME280;65998;46.256;7.534;2023-07-16T02:06:07;87185.38;;;19.13;100.00
43838;BME280;65998;46.256;7.534;2023-07-16T02:08:33;87187.03;;;19.06;100.00
43838;BME280;65998;46.256;7.534;2023-07-16T02:10:59;87186.13;;;18.93;100.00
43838;BME280;65998;46.256;7.534;2023-07-16T02:13:26;87193.34;;;18.86;100.00
43838;BME280;65998;46.256;7.534;2023-07-16T02:15:52;87195.94;;;18.71;100.00
43838;BME280;65998;46.256;7.534;2023-07-16T02:18:18;87198.94;;;18.65;100.00
43838;BME280;65998;46.256;7.534;2023-07-16T02:20:44;87207.91;;;18.68;100.00
43838;BME280;65998;46.256;7.534;2023-07-16T02:23:10;87203.91;;;18.63;100.00
43838;BME280;65998;46.256;7.534;2023-07-16T02:25:35;87199.09;;;18.61;100.00
43838;BME280;65998;46.256;7.534;2023-07-16T02:28:01;87192.09;;;18.62;100.00
43838;BME280;65998;46.256;7.534;2023-07-16T02:30:27;87199.50;;;18.70;100.00
43838;BME280;65998;46.256;7.534;2023-07-16T02:32:53;87197.09;;;18.18;100.00
43838;BME280;65998;46.256;7.534;2023-07-16T02:35:19;87194.78;;;17.83;100.00
43838;BME280;65998;46.256;7.534;2023-07-16T02:37:45;87186.91;;;17.90;100.00
43838;BME280;65998;46.256;7.534;2023-07-16T02:40:11;87198.03;;;18.10;100.00
43838;BME280;65998;46.256;7.534;2023-07-16T02:42:37;87201.75;;;18.24;100.00
43838;BME280;65998;46.256;7.534;2023-07-16T02:45:03;87206.38;;;18.31;100.00
43838;BME280;65998;46.256;7.534;2023-07-16T02:47:29;87208.81;;;18.41;100.00
43838;BME280;65998;46.256;7.534;2023-07-16T02:49:54;87196.72;;;18.49;100.00
43838;BME280;65998;46.256;7.534;2023-07-16T02:52:20;87201.19;;;18.61;100.00
43838;BME280;65998;46.256;7.534;2023-07-16T02:54:46;87203.25;;;18.62;100.00
43838;BME280;65998;46.256;7.534;2023-07-16T02:57:12;87198.97;;;18.44;100.00
43838;BME280;65998;46.256;7.534;2023-07-16T02:59:37;87209.19;;;18.50;100.00
43838;BME280;65998;46.256;7.534;2023-07-16T03:02:03;87211.16;;;18.54;100.00
43838;BME280;65998;46.256;7.534;2023-07-16T03:04:29;87212.88;;;18.24;100.00
43838;BME280;65998;46.256;7.534;2023-07-16T03:06:55;87210.91;;;18.20;100.00
43838;BME280;65998;46.256;7.534;2023-07-16T03:09:20;87208.88;;;18.18;100.00
43838;BME280;65998;46.256;7.534;2023-07-16T03:11:46;87214.78;;;18.29;100.00
43838;BME280;65998;46.256;7.534;2023-07-16T03:14:12;87218.03;;;18.36;100.00
43838;BME280;65998;46.256;7.534;2023-07-16T03:16:38;87213.16;;;18.36;100.00
43838;BME280;65998;46.256;7.534;2023-07-16T03:19:04;87210.91;;;18.41;100.00
43838;BME280;65998;46.256;7.534;2023-07-16T03:21:30;87217.69;;;18.46;100.00
43838;BME280;65998;46.256;7.534;2023-07-16T03:23:55;87217.75;;;18.44;100.00
43838;BME280;65998;46.256;7.534;2023-07-16T03:26:21;87216.41;;;18.43;100.00
43838;BME280;65998;46.256;7.534;2023-07-16T03:28:47;87217.91;;;18.40;100.00
43838;BME280;65998;46.256;7.534;2023-07-16T03:31:13;87222.09;;;18.39;100.00
43838;BME280;65998;46.256;7.534;2023-07-16T03:33:38;87234.06;;;18.35;100.00
43838;BME280;65998;46.256;7.534;2023-07-16T03:36:04;87227.19;;;18.32;100.00
43838;BME280;65998;46.256;7.534;2023-07-16T03:38:30;87229.22;;;18.34;100.00
43838;BME280;65998;46.256;7.534;2023-07-16T03:40:56;87226.59;;;18.30;100.00
43838;BME280;65998;46.256;7.534;2023-07-16T03:43:21;87236.69;;;18.18;100.00
43838;BME280;65998;46.256;7.534;2023-07-16T03:45:48;87231.28;;;18.14;100.00
43838;BME280;65998;46.256;7.534;2023-07-16T03:48:14;87234.25;;;18.08;100.00
43838;BME280;65998;46.256;7.534;2023-07-16T03:50:40;87234.25;;;18.08;100.00
43838;BME280;65998;46.256;7.534;2023-07-16T03:53:06;87234.31;;;18.06;100.00
43838;BME280;65998;46.256;7.534;2023-07-16T03:55:32;87239.69;;;18.12;100.00
43838;BME280;65998;46.256;7.534;2023-07-16T03:57:57;87242.41;;;18.14;100.00
43838;BME280;65998;46.256;7.534;2023-07-16T04:00:23;87248.69;;;18.13;100.00
43838;BME280;65998;46.256;7.534;2023-07-16T04:02:49;87256.09;;;18.21;100.00
43838;BME280;65998;46.256;7.534;2023-07-16T04:05:15;87251.56;;;18.11;100.00
43838;BME280;65998;46.256;7.534;2023-07-16T04:07:41;87249.38;;;18.13;100.00
43838;BME280;65998;46.256;7.534;2023-07-16T04:10:07;87256.50;;;18.08;100.00
43838;BME280;65998;46.256;7.534;2023-07-16T04:12:33;87255.22;;;18.05;100.00
43838;BME280;65998;46.256;7.534;2023-07-16T04:15:00;87255.22;;;18.05;100.00
43838;BME280;65998;46.256;7.534;2023-07-16T04:17:25;87262.19;;;18.04;100.00
43838;BME280;65998;46.256;7.534;2023-07-16T04:19:52;87257.44;;;18.01;100.00
43838;BME280;65998;46.256;7.534;2023-07-16T04:22:17;87258.31;;;17.95;100.00
43838;BME280;65998;46.256;7.534;2023-07-16T04:24:44;87267.22;;;18.00;100.00
43838;BME280;65998;46.256;7.534;2023-07-16T04:27:09;87267.84;;;17.79;100.00
43838;BME280;65998;46.256;7.534;2023-07-16T04:29:35;87269.41;;;17.74;100.00
43838;BME280;65998;46.256;7.534;2023-07-16T04:32:02;87262.66;;;17.67;100.00
43838;BME280;65998;46.256;7.534;2023-07-16T04:34:28;87258.72;;;17.58;100.00
43838;BME280;65998;46.256;7.534;2023-07-16T04:36:53;87269.28;;;17.53;100.00
43838;BME280;65998;46.256;7.534;2023-07-16T04:39:19;87272.56;;;17.37;100.00
43838;BME280;65998;46.256;7.534;2023-07-16T04:41:45;87267.56;;;17.42;100.00
43838;BME280;65998;46.256;7.534;2023-07-16T04:44:11;87264.31;;;17.10;100.00
43838;BME280;65998;46.256;7.534;2023-07-16T04:46:36;87265.19;;;16.80;100.00
43838;BME280;65998;46.256;7.534;2023-07-16T04:49:02;87271.81;;;16.66;100.00
43838;BME280;65998;46.256;7.534;2023-07-16T04:51:28;87268.34;;;16.66;100.00
43838;BME280;65998;46.256;7.534;2023-07-16T04:53:54;87271.13;;;16.90;100.00
43838;BME280;65998;46.256;7.534;2023-07-16T04:56:20;87261.16;;;17.00;100.00
43838;BME280;65998;46.256;7.534;2023-07-16T04:58:46;87260.88;;;17.10;100.00
43838;BME280;65998;46.256;7.534;2023-07-16T05:01:11;87254.53;;;16.88;100.00
43838;BME280;65998;46.256;7.534;2023-07-16T05:03:37;87263.94;;;16.75;100.00
43838;BME280;65998;46.256;7.534;2023-07-16T05:06:04;87262.91;;;16.59;100.00
43838;BME280;65998;46.256;7.534;2023-07-16T05:08:30;87277.41;;;16.62;100.00
43838;BME280;65998;46.256;7.534;2023-07-16T05:10:55;87278.91;;;16.86;100.00
43838;BME280;65998;46.256;7.534;2023-07-16T05:13:21;87271.84;;;17.14;100.00
43838;BME280;65998;46.256;7.534;2023-07-16T05:15:47;87276.75;;;17.36;100.00
43838;BME280;65998;46.256;7.534;2023-07-16T05:18:13;87279.16;;;17.48;100.00
43838;BME280;65998;46.256;7.534;2023-07-16T05:20:39;87274.44;;;17.68;100.00
43838;BME280;65998;46.256;7.534;2023-07-16T05:23:05;87272.97;;;17.71;100.00
43838;BME280;65998;46.256;7.534;2023-07-16T05:25:30;87273.47;;;17.77;100.00
43838;BME280;65998;46.256;7.534;2023-07-16T05:27:57;87271.63;;;17.70;100.00
43838;BME280;65998;46.256;7.534;2023-07-16T05:30:22;87277.00;;;17.76;100.00
43838;BME280;65998;46.256;7.534;2023-07-16T05:32:48;87281.69;;;17.34;100.00
43838;BME280;65998;46.256;7.534;2023-07-16T05:35:14;87277.19;;;17.45;100.00
43838;BME280;65998;46.256;7.534;2023-07-16T05:37:40;87280.72;;;17.43;100.00
43838;BME280;65998;46.256;7.534;2023-07-16T05:40:06;87284.09;;;17.46;100.00
43838;BME280;65998;46.256;7.534;2023-07-16T05:42:32;87285.41;;;17.49;100.00
43838;BME280;65998;46.256;7.534;2023-07-16T05:44:58;87289.47;;;17.52;100.00
43838;BME280;65998;46.256;7.534;2023-07-16T05:47:24;87291.34;;;17.60;100.00
43838;BME280;65998;46.256;7.534;2023-07-16T05:49:49;87300.47;;;17.56;100.00
43838;BME280;65998;46.256;7.534;2023-07-16T05:52:15;87307.38;;;17.57;100.00
43838;BME280;65998;46.256;7.534;2023-07-16T05:54:43;87317.16;;;17.56;100.00
43838;BME280;65998;46.256;7.534;2023-07-16T05:57:09;87322.53;;;17.62;100.00
43838;BME280;65998;46.256;7.534;2023-07-16T05:59:35;87310.53;;;17.45;100.00
43838;BME280;65998;46.256;7.534;2023-07-16T06:02:01;87318.06;;;17.48;100.00
43838;BME280;65998;46.256;7.534;2023-07-16T06:04:27;87323.69;;;17.71;100.00
43838;BME280;65998;46.256;7.534;2023-07-16T06:06:53;87318.38;;;17.61;100.00
43838;BME280;65998;46.256;7.534;2023-07-16T06:09:19;87309.84;;;17.69;100.00
43838;BME280;65998;46.256;7.534;2023-07-16T06:11:46;87307.28;;;17.61;100.00
43838;BME280;65998;46.256;7.534;2023-07-16T06:14:16;87301.34;;;17.50;100.00
43838;BME280;65998;46.256;7.534;2023-07-16T06:16:43;87303.63;;;17.69;100.00
43838;BME280;65998;46.256;7.534;2023-07-16T06:19:08;87303.91;;;17.81;100.00
43838;BME280;65998;46.256;7.534;2023-07-16T06:21:35;87307.63;;;17.74;100.00
43838;BME280;65998;46.256;7.534;2023-07-16T06:24:01;87320.16;;;17.96;100.00
43838;BME280;65998;46.256;7.534;2023-07-16T06:26:27;87312.78;;;18.09;100.00
43838;BME280;65998;46.256;7.534;2023-07-16T06:28:53;87309.41;;;17.83;100.00
43838;BME280;65998;46.256;7.534;2023-07-16T06:31:19;87320.41;;;18.10;100.00
43838;BME280;65998;46.256;7.534;2023-07-16T06:33:45;87331.53;;;18.10;100.00
43838;BME280;65998;46.256;7.534;2023-07-16T06:36:11;87339.91;;;18.31;100.00
43838;BME280;65998;46.256;7.534;2023-07-16T06:38:37;87338.22;;;18.40;100.00
43838;BME280;65998;46.256;7.534;2023-07-16T06:41:03;87337.22;;;18.50;100.00
43838;BME280;65998;46.256;7.534;2023-07-16T06:43:28;87330.34;;;18.47;100.00
43838;BME280;65998;46.256;7.534;2023-07-16T06:45:55;87339.56;;;18.41;100.00
43838;BME280;65998;46.256;7.534;2023-07-16T06:48:20;87329.50;;;18.30;100.00
43838;BME280;65998;46.256;7.534;2023-07-16T06:50:47;87332.72;;;18.38;100.00
43838;BME280;65998;46.256;7.534;2023-07-16T06:53:12;87335.31;;;18.44;100.00
43838;BME280;65998;46.256;7.534;2023-07-16T06:55:39;87326.94;;;18.24;100.00
43838;BME280;65998;46.256;7.534;2023-07-16T06:58:05;87341.47;;;18.03;100.00
43838;BME280;65998;46.256;7.534;2023-07-16T07:00:31;87336.25;;;17.68;100.00
43838;BME280;65998;46.256;7.534;2023-07-16T07:02:56;87328.03;;;17.64;100.00
43838;BME280;65998;46.256;7.534;2023-07-16T07:05:23;87316.88;;;17.41;100.00
43838;BME280;65998;46.256;7.534;2023-07-16T07:07:49;87331.53;;;17.63;100.00
43838;BME280;65998;46.256;7.534;2023-07-16T07:10:15;87319.72;;;17.87;100.00
43838;BME280;65998;46.256;7.534;2023-07-16T07:12:41;87325.16;;;17.91;100.00
43838;BME280;65998;46.256;7.534;2023-07-16T07:15:08;87333.44;;;18.16;100.00
43838;BME280;65998;46.256;7.534;2023-07-16T07:17:34;87326.84;;;17.82;100.00
43838;BME280;65998;46.256;7.534;2023-07-16T07:20:01;87321.41;;;18.01;100.00
43838;BME280;65998;46.256;7.534;2023-07-16T07:22:26;87325.13;;;18.37;100.00
43838;BME280;65998;46.256;7.534;2023-07-16T07:24:53;87323.09;;;18.56;100.00
43838;BME280;65998;46.256;7.534;2023-07-16T07:27:18;87336.09;;;18.64;100.00
43838;BME280;65998;46.256;7.534;2023-07-16T07:29:47;87331.34;;;18.81;100.00
43838;BME280;65998;46.256;7.534;2023-07-16T07:32:22;87323.81;;;18.98;100.00
43838;BME280;65998;46.256;7.534;2023-07-16T07:34:48;87323.53;;;19.06;100.00
43838;BME280;65998;46.256;7.534;2023-07-16T07:37:14;87312.16;;;19.12;100.00
43838;BME280;65998;46.256;7.534;2023-07-16T07:39:40;87313.34;;;18.99;100.00
43838;BME280;65998;46.256;7.534;2023-07-16T07:42:06;87306.72;;;19.08;100.00
43838;BME280;65998;46.256;7.534;2023-07-16T07:44:32;87312.13;;;19.33;100.00
43838;BME280;65998;46.256;7.534;2023-07-16T07:46:59;87309.00;;;19.23;100.00
43838;BME280;65998;46.256;7.534;2023-07-16T07:49:25;87305.44;;;19.05;100.00
43838;BME280;65998;46.256;7.534;2023-07-16T07:51:51;87293.34;;;19.13;100.00
43838;BME280;65998;46.256;7.534;2023-07-16T07:54:17;87298.34;;;19.48;100.00
43838;BME280;65998;46.256;7.534;2023-07-16T07:56:45;87290.69;;;19.67;100.00
43838;BME280;65998;46.256;7.534;2023-07-16T07:59:11;87288.13;;;19.80;100.00
43838;BME280;65998;46.256;7.534;2023-07-16T08:01:37;87294.22;;;19.85;100.00
43838;BME280;65998;46.256;7.534;2023-07-16T08:04:03;87298.59;;;19.98;100.00
43838;BME280;65998;46.256;7.534;2023-07-16T08:06:29;87285.25;;;20.01;100.00
43838;BME280;65998;46.256;7.534;2023-07-16T08:08:55;87292.28;;;20.17;100.00
43838;BME280;65998;46.256;7.534;2023-07-16T08:11:21;87286.22;;;20.29;100.00
43838;BME280;65998;46.256;7.534;2023-07-16T08:13:47;87288.38;;;20.45;100.00
43838;BME280;65998;46.256;7.534;2023-07-16T08:16:13;87284.31;;;20.42;100.00
43838;BME280;65998;46.256;7.534;2023-07-16T08:18:39;87291.38;;;20.58;100.00
43838;BME280;65998;46.256;7.534;2023-07-16T08:21:05;87285.63;;;20.62;100.00
43838;BME280;65998;46.256;7.534;2023-07-16T08:23:31;87285.78;;;20.75;100.00
43838;BME280;65998;46.256;7.534;2023-07-16T08:25:57;87293.19;;;20.82;100.00
43838;BME280;65998;46.256;7.534;2023-07-16T08:28:23;87294.34;;;21.04;100.00
43838;BME280;65998;46.256;7.534;2023-07-16T08:30:50;87294.50;;;21.33;100.00
43838;BME280;65998;46.256;7.534;2023-07-16T08:33:16;87278.28;;;21.53;100.00
43838;BME280;65998;46.256;7.534;2023-07-16T08:35:42;87293.44;;;21.58;100.00
43838;BME280;65998;46.256;7.534;2023-07-16T08:38:08;87295.56;;;21.89;100.00
43838;BME280;65998;46.256;7.534;2023-07-16T08:40:35;87297.63;;;22.05;97.18
43838;BME280;65998;46.256;7.534;2023-07-16T08:43:02;87285.50;;;22.55;99.62
43838;BME280;65998;46.256;7.534;2023-07-16T08:45:29;87284.41;;;22.77;86.41
43838;BME280;65998;46.256;7.534;2023-07-16T08:47:55;87294.66;;;22.68;88.02
43838;BME280;65998;46.256;7.534;2023-07-16T08:50:21;87300.47;;;22.64;90.33
43838;BME280;65998;46.256;7.534;2023-07-16T08:52:49;87305.53;;;23.18;87.88
43838;BME280;65998;46.256;7.534;2023-07-16T08:55:15;87291.22;;;23.79;80.33
43838;BME280;65998;46.256;7.534;2023-07-16T08:57:43;87281.81;;;23.85;79.25
43838;BME280;65998;46.256;7.534;2023-07-16T09:00:09;87284.75;;;23.55;78.12
43838;BME280;65998;46.256;7.534;2023-07-16T09:02:36;87288.09;;;23.31;80.42
43838;BME280;65998;46.256;7.534;2023-07-16T09:05:02;87293.13;;;23.01;84.23
43838;BME280;65998;46.256;7.534;2023-07-16T09:07:30;87286.56;;;22.47;85.50
43838;BME280;65998;46.256;7.534;2023-07-16T09:09:57;87290.81;;;22.46;91.13
43838;BME280;65998;46.256;7.534;2023-07-16T09:12:24;87289.84;;;22.52;92.77
43838;BME280;65998;46.256;7.534;2023-07-16T09:14:59;87286.66;;;22.45;93.79
43838;BME280;65998;46.256;7.534;2023-07-16T09:17:25;87297.66;;;22.35;93.03
43838;BME280;65998;46.256;7.534;2023-07-16T09:19:52;87289.56;;;22.28;94.13
43838;BME280;65998;46.256;7.534;2023-07-16T09:22:19;87286.47;;;22.35;97.95
43838;BME280;65998;46.256;7.534;2023-07-16T09:24:46;87280.66;;;22.09;94.33
43838;BME280;65998;46.256;7.534;2023-07-16T09:27:12;87277.19;;;22.23;100.00
43838;BME280;65998;46.256;7.534;2023-07-16T09:29:39;87270.72;;;22.12;96.75
43838;BME280;65998;46.256;7.534;2023-07-16T09:32:05;87273.13;;;21.74;99.87
43838;BME280;65998;46.256;7.534;2023-07-16T09:34:31;87281.28;;;21.95;100.00
43838;BME280;65998;46.256;7.534;2023-07-16T09:36:59;87268.78;;;22.09;100.00
43838;BME280;65998;46.256;7.534;2023-07-16T09:39:26;87270.91;;;22.08;100.00
43838;BME280;65998;46.256;7.534;2023-07-16T09:41:53;87275.66;;;22.26;100.00
43838;BME280;65998;46.256;7.534;2023-07-16T09:44:19;87273.44;;;22.29;100.00
43838;BME280;65998;46.256;7.534;2023-07-16T09:46:46;87277.47;;;22.17;99.21
43838;BME280;65998;46.256;7.534;2023-07-16T09:49:15;87269.94;;;22.43;100.00
43838;BME280;65998;46.256;7.534;2023-07-16T09:51:45;87270.44;;;22.48;100.00
43838;BME280;65998;46.256;7.534;2023-07-16T09:54:13;87267.53;;;22.50;100.00
43838;BME280;65998;46.256;7.534;2023-07-16T09:56:49;87269.06;;;22.61;99.63
43838;BME280;65998;46.256;7.534;2023-07-16T09:59:19;87271.38;;;22.72;100.00
43838;BME280;65998;46.256;7.534;2023-07-16T10:01:50;87272.16;;;22.70;96.60
43838;BME280;65998;46.256;7.534;2023-07-16T10:04:18;87255.66;;;22.64;97.28
43838;BME280;65998;46.256;7.534;2023-07-16T10:06:55;87268.69;;;22.84;100.00
43838;BME280;65998;46.256;7.534;2023-07-16T10:09:42;87265.41;;;22.80;94.13
43838;BME280;65998;46.256;7.534;2023-07-16T10:12:16;87264.69;;;22.79;96.08
43838;BME280;65998;46.256;7.534;2023-07-16T10:14:54;87264.13;;;22.77;97.65
43838;BME280;65998;46.256;7.534;2023-07-16T10:17:23;87263.34;;;22.78;94.22
43838;BME280;65998;46.256;7.534;2023-07-16T10:20:05;87252.44;;;22.87;95.77
43838;BME280;65998;46.256;7.534;2023-07-16T10:22:40;87253.69;;;23.05;90.91
43838;BME280;65998;46.256;7.534;2023-07-16T10:27:47;87259.91;;;23.20;96.29
43838;BME280;65998;46.256;7.534;2023-07-16T10:30:13;87250.06;;;23.21;90.34
43838;BME280;65998;46.256;7.534;2023-07-16T10:32:40;87249.41;;;23.06;94.50
43838;BME280;65998;46.256;7.534;2023-07-16T10:35:07;87251.84;;;22.99;95.50
43838;BME280;65998;46.256;7.534;2023-07-16T10:37:34;87249.47;;;22.91;94.11
43838;BME280;65998;46.256;7.534;2023-07-16T10:40:01;87246.94;;;23.00;96.35
43838;BME280;65998;46.256;7.534;2023-07-16T10:42:28;87255.50;;;23.10;96.35
43838;BME280;65998;46.256;7.534;2023-07-16T10:44:57;87257.78;;;23.20;97.62
43838;BME280;65998;46.256;7.534;2023-07-16T10:47:29;87252.13;;;23.35;91.90
43838;BME280;65998;46.256;7.534;2023-07-16T10:49:55;87243.63;;;23.10;96.57
43838;BME280;65998;46.256;7.534;2023-07-16T10:52:22;87244.84;;;23.40;100.00
43838;BME280;65998;46.256;7.534;2023-07-16T10:54:51;87245.41;;;23.43;95.11
43838;BME280;65998;46.256;7.534;2023-07-16T10:57:17;87249.53;;;23.59;100.00
43838;BME280;65998;46.256;7.534;2023-07-16T10:59:44;87246.44;;;23.77;94.97
43838;BME280;65998;46.256;7.534;2023-07-16T11:02:13;87245.31;;;23.72;94.08
43838;BME280;65998;46.256;7.534;2023-07-16T11:04:40;87235.31;;;23.75;91.37
43838;BME280;65998;46.256;7.534;2023-07-16T11:07:07;87237.91;;;23.79;90.57
43838;BME280;65998;46.256;7.534;2023-07-16T11:09:40;87239.94;;;23.81;95.83
43838;BME280;65998;46.256;7.534;2023-07-16T11:12:12;87237.66;;;23.71;89.55
43838;BME280;65998;46.256;7.534;2023-07-16T11:14:39;87236.31;;;23.70;96.61
43838;BME280;65998;46.256;7.534;2023-07-16T11:17:07;87241.72;;;23.74;88.13
43838;BME280;65998;46.256;7.534;2023-07-16T11:19:35;87247.88;;;23.64;89.35
43838;BME280;65998;46.256;7.534;2023-07-16T11:22:02;87246.41;;;23.65;88.53
43838;BME280;65998;46.256;7.534;2023-07-16T11:24:39;87241.03;;;23.73;93.42
43838;BME280;65998;46.256;7.534;2023-07-16T11:27:13;87242.28;;;23.76;93.35
43838;BME280;65998;46.256;7.534;2023-07-16T11:29:39;87246.91;;;23.82;94.40
43838;BME280;65998;46.256;7.534;2023-07-16T11:32:06;87232.63;;;23.73;83.43
43838;BME280;65998;46.256;7.534;2023-07-16T11:34:32;87247.34;;;23.86;87.44
43838;BME280;65998;46.256;7.534;2023-07-16T11:37:11;87239.03;;;23.84;82.18
43838;BME280;65998;46.256;7.534;2023-07-16T11:39:37;87233.00;;;23.93;89.37
43838;BME280;65998;46.256;7.534;2023-07-16T11:42:04;87235.16;;;24.05;92.59
43838;BME280;65998;46.256;7.534;2023-07-16T11:44:36;87229.34;;;24.09;80.86
43838;BME280;65998;46.256;7.534;2023-07-16T11:47:03;87227.53;;;24.16;78.91
43838;BME280;65998;46.256;7.534;2023-07-16T11:49:29;87227.19;;;24.22;91.50
43838;BME280;65998;46.256;7.534;2023-07-16T11:51:57;87223.41;;;24.28;82.17
43838;BME280;65998;46.256;7.534;2023-07-16T11:54:23;87215.31;;;24.34;80.52
43838;BME280;65998;46.256;7.534;2023-07-16T11:56:49;87222.97;;;24.36;82.68
43838;BME280;65998;46.256;7.534;2023-07-16T11:59:16;87214.84;;;24.55;79.22
43838;BME280;65998;46.256;7.534;2023-07-16T12:01:42;87209.94;;;24.43;76.22
43838;BME280;65998;46.256;7.534;2023-07-16T12:04:08;87200.16;;;24.42;81.25
43838;BME280;65998;46.256;7.534;2023-07-16T12:06:34;87207.69;;;24.33;73.71
43838;BME280;65998;46.256;7.534;2023-07-16T12:09:00;87196.78;;;24.52;69.07
43838;BME280;65998;46.256;7.534;2023-07-16T12:11:27;87198.78;;;24.54;73.23
43838;BME280;65998;46.256;7.534;2023-07-16T12:13:53;87198.22;;;24.64;74.62
43838;BME280;65998;46.256;7.534;2023-07-16T12:16:19;87193.28;;;24.51;70.59
43838;BME280;65998;46.256;7.534;2023-07-16T12:18:45;87191.16;;;24.52;69.79
43838;BME280;65998;46.256;7.534;2023-07-16T12:21:11;87186.09;;;24.55;73.46
43838;BME280;65998;46.256;7.534;2023-07-16T12:23:37;87186.09;;;24.55;76.45
43838;BME280;65998;46.256;7.534;2023-07-16T12:26:12;87195.94;;;24.79;77.22
43838;BME280;65998;46.256;7.534;2023-07-16T12:28:44;87193.91;;;24.77;76.24
43838;BME280;65998;46.256;7.534;2023-07-16T12:31:11;87187.50;;;24.79;78.37
43838;BME280;65998;46.256;7.534;2023-07-16T12:33:36;87177.06;;;24.77;80.23
43838;BME280;65998;46.256;7.534;2023-07-16T12:36:03;87186.03;;;24.80;80.17
43838;BME280;65998;46.256;7.534;2023-07-16T12:38:29;87191.84;;;24.89;79.08
43838;BME280;65998;46.256;7.534;2023-07-16T12:40:55;87186.59;;;24.82;85.93
43838;BME280;65998;46.256;7.534;2023-07-16T12:43:21;87189.44;;;24.70;83.43
43838;BME280;65998;46.256;7.534;2023-07-16T12:45:48;87177.53;;;24.69;85.33
43838;BME280;65998;46.256;7.534;2023-07-16T12:48:13;87176.88;;;24.56;83.97
43838;BME280;65998;46.256;7.534;2023-07-16T12:50:39;87175.53;;;24.55;84.95
43838;BME280;65998;46.256;7.534;2023-07-16T12:53:05;87176.88;;;24.43;86.59
43838;BME280;65998;46.256;7.534;2023-07-16T12:55:32;87172.59;;;24.57;83.05
43838;BME280;65998;46.256;7.534;2023-07-16T12:57:58;87172.47;;;24.59;77.62
43838;BME280;65998;46.256;7.534;2023-07-16T13:00:25;87170.19;;;24.74;82.83